Red Cliff Indian Reservation, Wisconsin
Current Conditions -  °F | °C
As of 6:53 PM on Wednesday 22 Oct 2014 (Local Time) from KASX Reporting Station
Few Clouds Few Clouds  
Wind Chill: 55°   Ceiling: Unl
Heat Index: 55°   Visibility: 10mi
Dew Point: 30°   Wind: 6mph
Humidity: 38%   Direction: 170°S
Pressure: 30.09"   Gusts: NA
Location:  46.543°N, 90.8706°W
Report Text: KASX 222353Z AUTO 17005KT 10SM FEW100 13/M01 A3009 RMK AO2 SLP199 T01281011 10167 20128 55012
Loading
Personal Weather Stations






























Interactive Weather Map
Tropical Storm Tracking
New forecast layout! Learn more

10-Day Weather Forecast

Advertisements
Track Severe Weather on mobile